sensor_id;sensor_type;location;lat;lon;timestamp;temperature;humidity
47336;DHT22;33068;51.990;5.926;2022-12-07T00:01:14;4.30;99.90
47336;DHT22;33068;51.990;5.926;2022-12-07T00:03:43;4.30;99.90
47336;DHT22;33068;51.990;5.926;2022-12-07T00:06:11;4.30;99.90
47336;DHT22;33068;51.990;5.926;2022-12-07T00:08:39;4.20;99.90
47336;DHT22;33068;51.990;5.926;2022-12-07T00:11:09;4.10;99.90
47336;DHT22;33068;51.990;5.926;2022-12-07T00:13:37;4.10;99.90
47336;DHT22;33068;51.990;5.926;2022-12-07T00:16:06;4.20;99.90
47336;DHT22;33068;51.990;5.926;2022-12-07T00:18:33;4.10;99.90
47336;DHT22;33068;51.990;5.926;2022-12-07T00:21:00;4.00;99.90
47336;DHT22;33068;51.990;5.926;2022-12-07T00:23:28;4.00;99.90
47336;DHT22;33068;51.990;5.926;2022-12-07T00:25:55;4.00;99.90
47336;DHT22;33068;51.990;5.926;2022-12-07T00:28:24;3.90;99.90
47336;DHT22;33068;51.990;5.926;2022-12-07T00:30:51;4.00;99.90
47336;DHT22;33068;51.990;5.926;2022-12-07T00:33:18;4.00;99.90
47336;DHT22;33068;51.990;5.926;2022-12-07T00:35:45;4.20;99.90
47336;DHT22;33068;51.990;5.926;2022-12-07T00:38:12;3.90;99.90
47336;DHT22;33068;51.990;5.926;2022-12-07T00:40:40;4.00;99.90
47336;DHT22;33068;51.990;5.926;2022-12-07T00:43:07;3.90;99.90
47336;DHT22;33068;51.990;5.926;2022-12-07T00:45:35;3.80;99.90
47336;DHT22;33068;51.990;5.926;2022-12-07T00:48:02;3.80;99.90
47336;DHT22;33068;51.990;5.926;2022-12-07T00:50:30;3.80;99.90
47336;DHT22;33068;51.990;5.926;2022-12-07T00:52:57;3.80;99.90
47336;DHT22;33068;51.990;5.926;2022-12-07T00:55:24;3.70;99.90
47336;DHT22;33068;51.990;5.926;2022-12-07T00:57:51;3.60;99.90
47336;DHT22;33068;51.990;5.926;2022-12-07T01:00:18;3.60;99.90
47336;DHT22;33068;51.990;5.926;2022-12-07T01:02:47;3.50;99.90
47336;DHT22;33068;51.990;5.926;2022-12-07T01:05:14;3.50;99.90
47336;DHT22;33068;51.990;5.926;2022-12-07T01:07:41;3.50;99.90
47336;DHT22;33068;51.990;5.926;2022-12-07T01:10:09;3.50;99.90
47336;DHT22;33068;51.990;5.926;2022-12-07T01:12:36;3.50;99.90
47336;DHT22;33068;51.990;5.926;2022-12-07T01:15:03;3.50;99.90
47336;DHT22;33068;51.990;5.926;2022-12-07T01:17:31;3.20;99.90
47336;DHT22;33068;51.990;5.926;2022-12-07T01:19:59;3.50;99.90
47336;DHT22;33068;51.990;5.926;2022-12-07T01:22:26;3.50;99.90
47336;DHT22;33068;51.990;5.926;2022-12-07T01:24:53;3.50;99.90
47336;DHT22;33068;51.990;5.926;2022-12-07T01:27:21;3.40;99.90
47336;DHT22;33068;51.990;5.926;2022-12-07T01:29:48;3.40;99.90
47336;DHT22;33068;51.990;5.926;2022-12-07T01:32:15;3.40;99.90
47336;DHT22;33068;51.990;5.926;2022-12-07T01:34:42;3.40;99.90
47336;DHT22;33068;51.990;5.926;2022-12-07T01:37:10;3.30;99.90
47336;DHT22;33068;51.990;5.926;2022-12-07T01:39:37;3.30;99.90
47336;DHT22;33068;51.990;5.926;2022-12-07T01:42:04;3.30;99.90
47336;DHT22;33068;51.990;5.926;2022-12-07T01:44:31;3.40;99.90
47336;DHT22;33068;51.990;5.926;2022-12-07T01:47:00;3.40;99.90
47336;DHT22;33068;51.990;5.926;2022-12-07T01:49:31;3.30;99.90
47336;DHT22;33068;51.990;5.926;2022-12-07T01:52:15;3.30;99.90
47336;DHT22;33068;51.990;5.926;2022-12-07T01:54:44;3.60;99.90
47336;DHT22;33068;51.990;5.926;2022-12-07T01:57:13;3.30;99.90
47336;DHT22;33068;51.990;5.926;2022-12-07T01:59:43;3.20;99.90
47336;DHT22;33068;51.990;5.926;2022-12-07T02:02:17;3.50;99.90
47336;DHT22;33068;51.990;5.926;2022-12-07T02:04:46;3.40;99.90
47336;DHT22;33068;51.990;5.926;2022-12-07T02:07:15;3.40;99.90
47336;DHT22;33068;51.990;5.926;2022-12-07T02:09:43;3.40;99.90
47336;DHT22;33068;51.990;5.926;2022-12-07T02:12:10;3.30;99.90
47336;DHT22;33068;51.990;5.926;2022-12-07T02:14:37;3.20;99.90
47336;DHT22;33068;51.990;5.926;2022-12-07T02:17:10;3.20;99.90
47336;DHT22;33068;51.990;5.926;2022-12-07T02:20:09;3.20;99.90
47336;DHT22;33068;51.990;5.926;2022-12-07T02:22:58;3.20;99.90
47336;DHT22;33068;51.990;5.926;2022-12-07T02:25:39;3.20;99.90
47336;DHT22;33068;51.990;5.926;2022-12-07T02:28:19;3.20;99.90
47336;DHT22;33068;51.990;5.926;2022-12-07T02:30:50;3.20;99.90
47336;DHT22;33068;51.990;5.926;2022-12-07T02:33:24;3.30;99.90
47336;DHT22;33068;51.990;5.926;2022-12-07T02:35:57;3.10;99.90
47336;DHT22;33068;51.990;5.926;2022-12-07T02:38:29;3.10;99.90
47336;DHT22;33068;51.990;5.926;2022-12-07T02:41:02;3.10;99.90
47336;DHT22;33068;51.990;5.926;2022-12-07T02:43:35;3.30;99.90
47336;DHT22;33068;51.990;5.926;2022-12-07T02:46:08;3.10;99.90
47336;DHT22;33068;51.990;5.926;2022-12-07T02:48:37;3.20;99.90
47336;DHT22;33068;51.990;5.926;2022-12-07T02:51:05;3.10;99.90
47336;DHT22;33068;51.990;5.926;2022-12-07T02:53:33;3.20;99.90
47336;DHT22;33068;51.990;5.926;2022-12-07T02:56:05;3.00;99.90
47336;DHT22;33068;51.990;5.926;2022-12-07T02:58:41;3.00;99.90
47336;DHT22;33068;51.990;5.926;2022-12-07T03:01:20;3.00;99.90
47336;DHT22;33068;51.990;5.926;2022-12-07T03:04:00;3.10;99.90
47336;DHT22;33068;51.990;5.926;2022-12-07T03:06:31;3.00;99.90
47336;DHT22;33068;51.990;5.926;2022-12-07T03:09:08;3.00;99.90
47336;DHT22;33068;51.990;5.926;2022-12-07T03:11:47;3.00;99.90
47336;DHT22;33068;51.990;5.926;2022-12-07T03:14:19;3.00;99.90
47336;DHT22;33068;51.990;5.926;2022-12-07T03:16:55;3.10;99.90
47336;DHT22;33068;51.990;5.926;2022-12-07T03:19:24;3.10;99.90
47336;DHT22;33068;51.990;5.926;2022-12-07T03:21:55;3.20;99.90
47336;DHT22;33068;51.990;5.926;2022-12-07T03:24:28;3.30;99.90
47336;DHT22;33068;51.990;5.926;2022-12-07T03:27:01;3.10;99.90
47336;DHT22;33068;51.990;5.926;2022-12-07T03:29:33;3.20;99.90
47336;DHT22;33068;51.990;5.926;2022-12-07T03:32:14;3.20;99.90
47336;DHT22;33068;51.990;5.926;2022-12-07T03:34:51;3.30;99.90
47336;DHT22;33068;51.990;5.926;2022-12-07T03:37:28;3.30;99.90
47336;DHT22;33068;51.990;5.926;2022-12-07T03:40:00;3.30;99.90
47336;DHT22;33068;51.990;5.926;2022-12-07T03:42:29;3.10;99.90
47336;DHT22;33068;51.990;5.926;2022-12-07T03:44:57;3.20;99.90
47336;DHT22;33068;51.990;5.926;2022-12-07T03:47:31;3.30;99.90
47336;DHT22;33068;51.990;5.926;2022-12-07T03:50:04;3.30;99.90
47336;DHT22;33068;51.990;5.926;2022-12-07T03:52:39;3.30;99.90
47336;DHT22;33068;51.990;5.926;2022-12-07T03:55:13;3.30;99.90
47336;DHT22;33068;51.990;5.926;2022-12-07T03:57:48;3.30;99.90
47336;DHT22;33068;51.990;5.926;2022-12-07T04:00:19;3.30;99.90
47336;DHT22;33068;51.990;5.926;2022-12-07T04:02:51;3.30;99.90
47336;DHT22;33068;51.990;5.926;2022-12-07T04:05:19;3.40;99.90
47336;DHT22;33068;51.990;5.926;2022-12-07T04:07:47;3.40;99.90
47336;DHT22;33068;51.990;5.926;2022-12-07T04:10:15;3.40;99.90
47336;DHT22;33068;51.990;5.926;2022-12-07T04:12:43;3.40;99.90
47336;DHT22;33068;51.990;5.926;2022-12-07T04:15:11;3.30;99.90
47336;DHT22;33068;51.990;5.926;2022-12-07T04:17:38;3.40;99.90
47336;DHT22;33068;51.990;5.926;2022-12-07T04:20:08;3.30;99.90
47336;DHT22;33068;51.990;5.926;2022-12-07T04:22:36;3.30;99.90
47336;DHT22;33068;51.990;5.926;2022-12-07T04:25:05;3.30;99.90
47336;DHT22;33068;51.990;5.926;2022-12-07T04:27:34;3.30;99.90
47336;DHT22;33068;51.990;5.926;2022-12-07T04:30:02;3.20;99.90
47336;DHT22;33068;51.990;5.926;2022-12-07T04:32:29;3.30;99.90
47336;DHT22;33068;51.990;5.926;2022-12-07T04:34:56;3.40;99.90
47336;DHT22;33068;51.990;5.926;2022-12-07T04:37:25;3.30;99.90
47336;DHT22;33068;51.990;5.926;2022-12-07T04:39:54;3.30;99.90
47336;DHT22;33068;51.990;5.926;2022-12-07T04:42:21;3.40;99.90
47336;DHT22;33068;51.990;5.926;2022-12-07T04:44:48;3.40;99.90
47336;DHT22;33068;51.990;5.926;2022-12-07T04:47:19;3.40;99.90
47336;DHT22;33068;51.990;5.926;2022-12-07T04:49:46;3.70;99.90
47336;DHT22;33068;51.990;5.926;2022-12-07T04:52:20;3.60;99.90
47336;DHT22;33068;51.990;5.926;2022-12-07T04:54:48;3.60;99.90
47336;DHT22;33068;51.990;5.926;2022-12-07T04:57:18;3.60;99.90
47336;DHT22;33068;51.990;5.926;2022-12-07T04:59:47;3.60;99.90
47336;DHT22;33068;51.990;5.926;2022-12-07T05:02:14;3.60;99.90
47336;DHT22;33068;51.990;5.926;2022-12-07T05:04:41;3.60;99.90
47336;DHT22;33068;51.990;5.926;2022-12-07T05:07:10;3.60;99.90
47336;DHT22;33068;51.990;5.926;2022-12-07T05:09:37;3.50;99.90
47336;DHT22;33068;51.990;5.926;2022-12-07T05:12:06;3.50;99.90
47336;DHT22;33068;51.990;5.926;2022-12-07T05:14:44;3.50;99.90
47336;DHT22;33068;51.990;5.926;2022-12-07T05:17:12;3.40;99.90
47336;DHT22;33068;51.990;5.926;2022-12-07T05:19:39;3.40;99.90
47336;DHT22;33068;51.990;5.926;2022-12-07T05:22:06;3.30;99.90
47336;DHT22;33068;51.990;5.926;2022-12-07T05:24:33;3.30;99.90
47336;DHT22;33068;51.990;5.926;2022-12-07T05:27:00;3.20;99.90
47336;DHT22;33068;51.990;5.926;2022-12-07T05:29:29;3.10;99.90
47336;DHT22;33068;51.990;5.926;2022-12-07T05:31:58;3.10;99.90
47336;DHT22;33068;51.990;5.926;2022-12-07T05:34:26;3.10;99.90
47336;DHT22;33068;51.990;5.926;2022-12-07T05:36:53;3.20;99.90
47336;DHT22;33068;51.990;5.926;2022-12-07T05:39:20;3.20;99.90
47336;DHT22;33068;51.990;5.926;2022-12-07T05:41:49;3.20;99.90
47336;DHT22;33068;51.990;5.926;2022-12-07T05:44:35;3.20;99.90
47336;DHT22;33068;51.990;5.926;2022-12-07T05:47:02;3.30;99.90
47336;DHT22;33068;51.990;5.926;2022-12-07T05:49:29;3.30;99.90
47336;DHT22;33068;51.990;5.926;2022-12-07T05:51:56;3.40;99.90
47336;DHT22;33068;51.990;5.926;2022-12-07T05:54:24;3.30;99.90
47336;DHT22;33068;51.990;5.926;2022-12-07T05:56:56;3.30;99.90
47336;DHT22;33068;51.990;5.926;2022-12-07T05:59:23;3.30;99.90
47336;DHT22;33068;51.990;5.926;2022-12-07T06:01:51;3.30;99.90
47336;DHT22;33068;51.990;5.926;2022-12-07T06:04:19;3.20;99.90
47336;DHT22;33068;51.990;5.926;2022-12-07T06:06:53;3.20;99.90
47336;DHT22;33068;51.990;5.926;2022-12-07T06:09:23;3.10;99.90
47336;DHT22;33068;51.990;5.926;2022-12-07T06:11:50;3.00;99.90
47336;DHT22;33068;51.990;5.926;2022-12-07T06:14:37;3.00;99.90
47336;DHT22;33068;51.990;5.926;2022-12-07T06:17:06;2.90;99.90
47336;DHT22;33068;51.990;5.926;2022-12-07T06:19:33;2.80;99.90
47336;DHT22;33068;51.990;5.926;2022-12-07T06:22:01;2.70;99.90
47336;DHT22;33068;51.990;5.926;2022-12-07T06:24:28;2.60;99.90
47336;DHT22;33068;51.990;5.926;2022-12-07T06:26:55;2.60;99.90
47336;DHT22;33068;51.990;5.926;2022-12-07T06:29:22;2.50;99.90
47336;DHT22;33068;51.990;5.926;2022-12-07T06:31:50;2.50;99.90
47336;DHT22;33068;51.990;5.926;2022-12-07T06:34:22;2.40;99.90
47336;DHT22;33068;51.990;5.926;2022-12-07T06:36:50;2.40;99.90
47336;DHT22;33068;51.990;5.926;2022-12-07T06:39:19;2.30;99.90
47336;DHT22;33068;51.990;5.926;2022-12-07T06:41:46;2.40;99.90
47336;DHT22;33068;51.990;5.926;2022-12-07T06:44:19;2.20;99.90
47336;DHT22;33068;51.990;5.926;2022-12-07T06:46:51;2.30;99.90
47336;DHT22;33068;51.990;5.926;2022-12-07T06:49:23;2.40;99.90
47336;DHT22;33068;51.990;5.926;2022-12-07T06:51:50;2.40;99.90
47336;DHT22;33068;51.990;5.926;2022-12-07T06:54:17;2.50;99.90
47336;DHT22;33068;51.990;5.926;2022-12-07T06:56:44;2.60;99.90
47336;DHT22;33068;51.990;5.926;2022-12-07T06:59:14;2.60;99.90
47336;DHT22;33068;51.990;5.926;2022-12-07T07:01:41;2.60;99.90
47336;DHT22;33068;51.990;5.926;2022-12-07T07:04:08;2.60;99.90
47336;DHT22;33068;51.990;5.926;2022-12-07T07:06:36;2.60;99.90
47336;DHT22;33068;51.990;5.926;2022-12-07T07:09:03;2.60;99.90
47336;DHT22;33068;51.990;5.926;2022-12-07T07:11:33;2.80;99.90
47336;DHT22;33068;51.990;5.926;2022-12-07T07:14:00;2.70;99.90
47336;DHT22;33068;51.990;5.926;2022-12-07T07:16:33;2.80;99.90
47336;DHT22;33068;51.990;5.926;2022-12-07T07:19:00;2.80;99.90
47336;DHT22;33068;51.990;5.926;2022-12-07T07:21:27;2.80;99.90
47336;DHT22;33068;51.990;5.926;2022-12-07T07:23:55;2.80;99.90
47336;DHT22;33068;51.990;5.926;2022-12-07T07:26:22;2.80;99.90
47336;DHT22;33068;51.990;5.926;2022-12-07T07:28:49;2.70;99.90
47336;DHT22;33068;51.990;5.926;2022-12-07T07:31:24;2.70;99.90
47336;DHT22;33068;51.990;5.926;2022-12-07T07:34:03;2.70;99.90
47336;DHT22;33068;51.990;5.926;2022-12-07T07:36:34;2.70;99.90
47336;DHT22;33068;51.990;5.926;2022-12-07T07:39:05;2.70;99.90
47336;DHT22;33068;51.990;5.926;2022-12-07T07:41:32;2.70;99.90
47336;DHT22;33068;51.990;5.926;2022-12-07T07:44:01;2.80;99.90
47336;DHT22;33068;51.990;5.926;2022-12-07T07:46:28;2.70;99.90
47336;DHT22;33068;51.990;5.926;2022-12-07T07:48:56;2.70;99.90
47336;DHT22;33068;51.990;5.926;2022-12-07T07:51:23;2.80;99.90
47336;DHT22;33068;51.990;5.926;2022-12-07T07:53:53;2.80;99.90
47336;DHT22;33068;51.990;5.926;2022-12-07T07:56:22;2.80;99.90
47336;DHT22;33068;51.990;5.926;2022-12-07T07:58:51;2.80;99.90
47336;DHT22;33068;51.990;5.926;2022-12-07T08:01:18;2.80;99.90
47336;DHT22;33068;51.990;5.926;2022-12-07T08:03:46;2.80;99.90
47336;DHT22;33068;51.990;5.926;2022-12-07T08:06:13;2.80;99.90
47336;DHT22;33068;51.990;5.926;2022-12-07T08:08:40;2.70;99.90
47336;DHT22;33068;51.990;5.926;2022-12-07T08:11:09;2.80;99.90
47336;DHT22;33068;51.990;5.926;2022-12-07T08:13:41;2.70;99.90
47336;DHT22;33068;51.990;5.926;2022-12-07T08:16:19;2.70;99.90
47336;DHT22;33068;51.990;5.926;2022-12-07T08:18:46;2.80;99.90
47336;DHT22;33068;51.990;5.926;2022-12-07T08:21:15;2.90;99.90
47336;DHT22;33068;51.990;5.926;2022-12-07T08:23:42;3.00;99.90
47336;DHT22;33068;51.990;5.926;2022-12-07T08:26:13;3.20;99.90
47336;DHT22;33068;51.990;5.926;2022-12-07T08:28:42;3.20;99.90
47336;DHT22;33068;51.990;5.926;2022-12-07T08:31:12;3.30;99.90
47336;DHT22;33068;51.990;5.926;2022-12-07T08:33:40;3.40;99.90
47336;DHT22;33068;51.990;5.926;2022-12-07T08:36:09;3.50;99.90
47336;DHT22;33068;51.990;5.926;2022-12-07T08:38:39;3.50;99.90
47336;DHT22;33068;51.990;5.926;2022-12-07T08:41:07;3.60;99.90
47336;DHT22;33068;51.990;5.926;2022-12-07T08:43:35;3.70;99.90
47336;DHT22;33068;51.990;5.926;2022-12-07T08:46:09;3.60;99.90
47336;DHT22;33068;51.990;5.926;2022-12-07T08:48:39;3.70;99.90
47336;DHT22;33068;51.990;5.926;2022-12-07T08:51:07;3.70;99.90
47336;DHT22;33068;51.990;5.926;2022-12-07T08:53:35;3.70;99.90
47336;DHT22;33068;51.990;5.926;2022-12-07T08:56:04;3.60;99.90
47336;DHT22;33068;51.990;5.926;2022-12-07T08:58:32;3.60;99.90
47336;DHT22;33068;51.990;5.926;2022-12-07T09:01:00;3.50;99.90
47336;DHT22;33068;51.990;5.926;2022-12-07T09:03:28;3.50;99.90
47336;DHT22;33068;51.990;5.926;2022-12-07T09:05:55;3.50;99.90
47336;DHT22;33068;51.990;5.926;2022-12-07T09:08:25;3.30;99.90
47336;DHT22;33068;51.990;5.926;2022-12-07T09:10:53;3.60;99.90
47336;DHT22;33068;51.990;5.926;2022-12-07T09:13:20;3.80;99.90
47336;DHT22;33068;51.990;5.926;2022-12-07T09:15:50;4.00;99.90
47336;DHT22;33068;51.990;5.926;2022-12-07T09:18:20;4.20;99.90
47336;DHT22;33068;51.990;5.926;2022-12-07T09:20:54;4.30;99.90
47336;DHT22;33068;51.990;5.926;2022-12-07T09:23:21;4.30;99.90
47336;DHT22;33068;51.990;5.926;2022-12-07T09:25:48;4.30;99.90
47336;DHT22;33068;51.990;5.926;2022-12-07T09:28:15;4.30;99.90
47336;DHT22;33068;51.990;5.926;2022-12-07T09:30:45;4.30;99.90
47336;DHT22;33068;51.990;5.926;2022-12-07T09:33:16;4.40;99.90
47336;DHT22;33068;51.990;5.926;2022-12-07T09:35:45;4.50;99.90
47336;DHT22;33068;51.990;5.926;2022-12-07T09:38:14;4.70;99.90
47336;DHT22;33068;51.990;5.926;2022-12-07T09:40:41;4.90;99.90
47336;DHT22;33068;51.990;5.926;2022-12-07T09:43:13;5.00;99.90
47336;DHT22;33068;51.990;5.926;2022-12-07T09:45:42;5.10;99.90
47336;DHT22;33068;51.990;5.926;2022-12-07T09:48:17;5.10;99.90
47336;DHT22;33068;51.990;5.926;2022-12-07T09:50:48;5.30;99.90
47336;DHT22;33068;51.990;5.926;2022-12-07T09:53:24;5.30;99.90
47336;DHT22;33068;51.990;5.926;2022-12-07T09:55:52;5.60;99.90
47336;DHT22;33068;51.990;5.926;2022-12-07T09:58:23;5.80;99.90
47336;DHT22;33068;51.990;5.926;2022-12-07T10:00:55;5.90;99.90
47336;DHT22;33068;51.990;5.926;2022-12-07T10:03:23;6.00;99.90
47336;DHT22;33068;51.990;5.926;2022-12-07T10:05:59;6.00;99.90
47336;DHT22;33068;51.990;5.926;2022-12-07T10:08:38;6.10;99.90
47336;DHT22;33068;51.990;5.926;2022-12-07T10:11:07;6.10;99.90
47336;DHT22;33068;51.990;5.926;2022-12-07T10:13:40;6.10;99.90
47336;DHT22;33068;51.990;5.926;2022-12-07T10:16:35;6.00;99.90
47336;DHT22;33068;51.990;5.926;2022-12-07T10:19:22;6.00;99.90
47336;DHT22;33068;51.990;5.926;2022-12-07T10:22:07;6.00;99.90
47336;DHT22;33068;51.990;5.926;2022-12-07T10:24:40;6.00;99.90
47336;DHT22;33068;51.990;5.926;2022-12-07T10:27:18;6.10;99.90
47336;DHT22;33068;51.990;5.926;2022-12-07T10:29:53;6.00;99.90
47336;DHT22;33068;51.990;5.926;2022-12-07T10:32:33;5.90;99.90
47336;DHT22;33068;51.990;5.926;2022-12-07T10:35:23;5.90;99.90
47336;DHT22;33068;51.990;5.926;2022-12-07T10:37:57;6.00;99.90
47336;DHT22;33068;51.990;5.926;2022-12-07T10:40:29;6.20;99.90
47336;DHT22;33068;51.990;5.926;2022-12-07T10:43:05;6.30;99.90
47336;DHT22;33068;51.990;5.926;2022-12-07T10:45:36;6.40;99.90
47336;DHT22;33068;51.990;5.926;2022-12-07T10:48:13;6.60;99.90
47336;DHT22;33068;51.990;5.926;2022-12-07T10:50:55;6.70;99.90
47336;DHT22;33068;51.990;5.926;2022-12-07T10:53:34;6.80;99.90
47336;DHT22;33068;51.990;5.926;2022-12-07T10:56:24;6.90;99.90
47336;DHT22;33068;51.990;5.926;2022-12-07T10:59:12;7.00;99.90
47336;DHT22;33068;51.990;5.926;2022-12-07T11:01:50;7.00;99.90
47336;DHT22;33068;51.990;5.926;2022-12-07T11:04:27;6.90;99.90
47336;DHT22;33068;51.990;5.926;2022-12-07T11:07:02;6.90;99.90
47336;DHT22;33068;51.990;5.926;2022-12-07T11:09:47;6.70;99.90
47336;DHT22;33068;51.990;5.926;2022-12-07T11:12:26;6.60;99.90
47336;DHT22;33068;51.990;5.926;2022-12-07T11:14:58;6.50;99.90
47336;DHT22;33068;51.990;5.926;2022-12-07T11:17:34;6.40;99.90
47336;DHT22;33068;51.990;5.926;2022-12-07T11:20:14;6.50;99.90
47336;DHT22;33068;51.990;5.926;2022-12-07T11:25:39;6.70;99.90
47336;DHT22;33068;51.990;5.926;2022-12-07T11:28:21;6.70;99.90
47336;DHT22;33068;51.990;5.926;2022-12-07T11:30:57;6.70;99.90
47336;DHT22;33068;51.990;5.926;2022-12-07T11:33:35;6.90;99.90
47336;DHT22;33068;51.990;5.926;2022-12-07T11:36:26;6.90;99.90
47336;DHT22;33068;51.990;5.926;2022-12-07T11:39:00;6.90;99.90
47336;DHT22;33068;51.990;5.926;2022-12-07T11:41:31;7.30;99.90
47336;DHT22;33068;51.990;5.926;2022-12-07T11:44:05;7.20;99.90
47336;DHT22;33068;51.990;5.926;2022-12-07T11:46:45;7.30;99.90
47336;DHT22;33068;51.990;5.926;2022-12-07T11:49:19;7.40;99.90
47336;DHT22;33068;51.990;5.926;2022-12-07T11:51:53;7.50;99.90
47336;DHT22;33068;51.990;5.926;2022-12-07T11:54:25;7.60;99.90
47336;DHT22;33068;51.990;5.926;2022-12-07T11:56:59;7.70;99.90
47336;DHT22;33068;51.990;5.926;2022-12-07T11:59:36;7.60;99.90
47336;DHT22;33068;51.990;5.926;2022-12-07T12:02:13;7.60;99.90
47336;DHT22;33068;51.990;5.926;2022-12-07T12:04:45;7.60;99.90
47336;DHT22;33068;51.990;5.926;2022-12-07T12:07:17;7.30;99.90
47336;DHT22;33068;51.990;5.926;2022-12-07T12:09:50;7.00;99.90
47336;DHT22;33068;51.990;5.926;2022-12-07T12:12:43;6.90;99.90
47336;DHT22;33068;51.990;5.926;2022-12-07T12:15:33;6.90;99.90
47336;DHT22;33068;51.990;5.926;2022-12-07T12:20:57;6.70;99.90
47336;DHT22;33068;51.990;5.926;2022-12-07T12:23:35;6.60;99.90
47336;DHT22;33068;51.990;5.926;2022-12-07T12:26:05;6.60;99.90
47336;DHT22;33068;51.990;5.926;2022-12-07T12:28:40;6.90;99.90
47336;DHT22;33068;51.990;5.926;2022-12-07T12:31:13;6.90;99.90
47336;DHT22;33068;51.990;5.926;2022-12-07T12:33:44;7.00;99.90
47336;DHT22;33068;51.990;5.926;2022-12-07T12:36:24;6.90;99.90
47336;DHT22;33068;51.990;5.926;2022-12-07T12:39:08;6.70;99.90
47336;DHT22;33068;51.990;5.926;2022-12-07T12:41:59;7.00;99.90
47336;DHT22;33068;51.990;5.926;2022-12-07T12:44:41;7.20;99.90
47336;DHT22;33068;51.990;5.926;2022-12-07T12:50:18;7.70;99.90
47336;DHT22;33068;51.990;5.926;2022-12-07T12:53:01;7.80;99.90
47336;DHT22;33068;51.990;5.926;2022-12-07T12:58:34;7.70;99.90
47336;DHT22;33068;51.990;5.926;2022-12-07T13:07:01;7.70;99.90
47336;DHT22;33068;51.990;5.926;2022-12-07T13:09:32;7.70;99.90
47336;DHT22;33068;51.990;5.926;2022-12-07T13:12:05;7.70;99.90
47336;DHT22;33068;51.990;5.926;2022-12-07T13:14:58;7.60;99.90
47336;DHT22;33068;51.990;5.926;2022-12-07T13:18:00;7.60;99.90
47336;DHT22;33068;51.990;5.926;2022-12-07T13:20:48;7.50;99.90
47336;DHT22;33068;51.990;5.926;2022-12-07T13:23:23;7.30;99.90
47336;DHT22;33068;51.990;5.926;2022-12-07T13:25:56;7.40;99.90
47336;DHT22;33068;51.990;5.926;2022-12-07T13:28:35;7.50;99.90
47336;DHT22;33068;51.990;5.926;2022-12-07T13:31:30;7.70;99.90
47336;DHT22;33068;51.990;5.926;2022-12-07T13:33:58;7.60;99.90
47336;DHT22;33068;51.990;5.926;2022-12-07T13:36:27;7.60;99.90
47336;DHT22;33068;51.990;5.926;2022-12-07T13:38:58;7.50;99.90
47336;DHT22;33068;51.990;5.926;2022-12-07T13:41:58;7.50;99.90
47336;DHT22;33068;51.990;5.926;2022-12-07T13:44:34;7.30;99.90
47336;DHT22;33068;51.990;5.926;2022-12-07T13:47:09;7.30;99.90
47336;DHT22;33068;51.990;5.926;2022-12-07T13:49:46;7.20;99.90
47336;DHT22;33068;51.990;5.926;2022-12-07T13:52:16;7.30;99.90
47336;DHT22;33068;51.990;5.926;2022-12-07T13:54:47;7.20;99.90
47336;DHT22;33068;51.990;5.926;2022-12-07T13:57:15;7.30;99.90
47336;DHT22;33068;51.990;5.926;2022-12-07T13:59:43;7.30;99.90
47336;DHT22;33068;51.990;5.926;2022-12-07T14:02:19;7.30;99.90
47336;DHT22;33068;51.990;5.926;2022-12-07T14:04:48;7.20;99.90
47336;DHT22;33068;51.990;5.926;2022-12-07T14:07:22;7.20;99.90
47336;DHT22;33068;51.990;5.926;2022-12-07T14:09:59;7.20;99.90
47336;DHT22;33068;51.990;5.926;2022-12-07T14:12:27;7.20;99.90
47336;DHT22;33068;51.990;5.926;2022-12-07T14:14:55;7.10;99.90
47336;DHT22;33068;51.990;5.926;2022-12-07T14:17:24;6.90;99.90
47336;DHT22;33068;51.990;5.926;2022-12-07T14:19:56;6.70;99.90
47336;DHT22;33068;51.990;5.926;2022-12-07T14:22:31;6.50;99.90
47336;DHT22;33068;51.990;5.926;2022-12-07T14:25:23;6.20;99.90
47336;DHT22;33068;51.990;5.926;2022-12-07T14:27:57;6.10;99.90
47336;DHT22;33068;51.990;5.926;2022-12-07T14:30:26;5.90;99.90
47336;DHT22;33068;51.990;5.926;2022-12-07T14:32:57;5.70;99.90
47336;DHT22;33068;51.990;5.926;2022-12-07T14:35:37;5.60;99.90
47336;DHT22;33068;51.990;5.926;2022-12-07T14:38:07;5.70;99.90
47336;DHT22;33068;51.990;5.926;2022-12-07T14:40:36;5.50;99.90
47336;DHT22;33068;51.990;5.926;2022-12-07T14:43:10;5.50;99.90
47336;DHT22;33068;51.990;5.926;2022-12-07T14:45:39;5.50;99.90
47336;DHT22;33068;51.990;5.926;2022-12-07T14:48:10;5.40;99.90
47336;DHT22;33068;51.990;5.926;2022-12-07T14:50:40;5.30;99.90
47336;DHT22;33068;51.990;5.926;2022-12-07T14:53:15;5.40;99.90
47336;DHT22;33068;51.990;5.926;2022-12-07T14:55:53;5.40;99.90
47336;DHT22;33068;51.990;5.926;2022-12-07T14:58:20;5.40;99.90
47336;DHT22;33068;51.990;5.926;2022-12-07T15:00:50;5.30;99.90
47336;DHT22;33068;51.990;5.926;2022-12-07T15:03:24;5.30;99.90
47336;DHT22;33068;51.990;5.926;2022-12-07T15:05:51;5.30;99.90
47336;DHT22;33068;51.990;5.926;2022-12-07T15:08:24;5.20;99.90
47336;DHT22;33068;51.990;5.926;2022-12-07T15:10:55;5.30;99.90
47336;DHT22;33068;51.990;5.926;2022-12-07T15:13:23;5.40;99.90
47336;DHT22;33068;51.990;5.926;2022-12-07T15:16:13;5.20;99.90
47336;DHT22;33068;51.990;5.926;2022-12-07T15:18:43;5.20;99.90
47336;DHT22;33068;51.990;5.926;2022-12-07T15:21:12;5.10;99.90
47336;DHT22;33068;51.990;5.926;2022-12-07T15:23:43;5.10;99.90
47336;DHT22;33068;51.990;5.926;2022-12-07T15:26:14;5.10;99.90
47336;DHT22;33068;51.990;5.926;2022-12-07T15:28:45;5.00;99.90
47336;DHT22;33068;51.990;5.926;2022-12-07T15:31:21;5.00;99.90
47336;DHT22;33068;51.990;5.926;2022-12-07T15:33:48;5.00;99.90
47336;DHT22;33068;51.990;5.926;2022-12-07T15:36:28;5.00;99.90
47336;DHT22;33068;51.990;5.926;2022-12-07T15:38:57;5.00;99.90
47336;DHT22;33068;51.990;5.926;2022-12-07T15:41:27;4.90;99.90
47336;DHT22;33068;51.990;5.926;2022-12-07T15:43:54;5.10;99.90
47336;DHT22;33068;51.990;5.926;2022-12-07T15:46:40;4.80;99.90
47336;DHT22;33068;51.990;5.926;2022-12-07T15:49:11;4.90;99.90
47336;DHT22;33068;51.990;5.926;2022-12-07T15:51:41;4.80;99.90
47336;DHT22;33068;51.990;5.926;2022-12-07T15:54:12;4.70;99.90
47336;DHT22;33068;51.990;5.926;2022-12-07T15:56:44;4.90;99.90
47336;DHT22;33068;51.990;5.926;2022-12-07T15:59:11;4.80;99.90
47336;DHT22;33068;51.990;5.926;2022-12-07T16:01:43;4.80;99.90
47336;DHT22;33068;51.990;5.926;2022-12-07T16:04:17;4.80;99.90
47336;DHT22;33068;51.990;5.926;2022-12-07T16:06:48;4.80;99.90
47336;DHT22;33068;51.990;5.926;2022-12-07T16:09:16;4.80;99.90
47336;DHT22;33068;51.990;5.926;2022-12-07T16:11:47;4.80;99.90
47336;DHT22;33068;51.990;5.926;2022-12-07T16:14:16;4.80;99.90
47336;DHT22;33068;51.990;5.926;2022-12-07T16:16:51;4.80;99.90
47336;DHT22;33068;51.990;5.926;2022-12-07T16:19:18;4.80;99.90
47336;DHT22;33068;51.990;5.926;2022-12-07T16:21:45;4.80;99.90
47336;DHT22;33068;51.990;5.926;2022-12-07T16:47:56;4.50;99.90
47336;DHT22;33068;51.990;5.926;2022-12-07T16:50:26;4.60;99.90
47336;DHT22;33068;51.990;5.926;2022-12-07T16:52:53;4.60;99.90
47336;DHT22;33068;51.990;5.926;2022-12-07T16:55:34;4.50;99.90